Flight Track Log - Related Links

Times and Time Zones

All times are in EDT time to prevent confusion due to time zone crossing. See the CNS523 flight status page for this flight to view local times or setup timezone preferences in your user account.

Time Position Orientation Groundspeed Altitude Reporting Facility
EDT Latitude Longitude Course Direction KTS MPH feet Rate Location/Type
Fri 08:03:28 PM 39.3178 -76.8683 48° Northeast 235 270 15,000  Level New York Center
Fri 08:04:29 PM 39.3678 -76.7894 51° Northeast 235 270 16,500 1,180 Climbing New York Center
Fri 08:05:30 PM 39.4061 -76.7336 48° Northeast 224 258 17,400 454 Climbing New York Center
Fri 08:06:28 PM 39.4581 -76.6544 50° Northeast 250 288 17,400 50 Level New York Center
Fri 08:07:29 PM 39.5050 -76.5886 47° Northeast 267 307 17,500 49 Climbing New York Center
Fri 08:08:00 PM 39.7227 -76.3189 48° Northeast  Level Estimated
Fri 08:08:31 PM 39.5611 -76.5069 48° Northeast 272 313 17,500  Level New York Center
Fri 08:09:28 PM 39.6061 -76.4406 49° Northeast 272 313 17,500  Level New York Center
Fri 08:10:28 PM 39.6622 -76.3561 49° Northeast 272 313 17,500  Level New York Center
Fri 08:11:30 PM 39.7072 -76.2894 49° Northeast 272 313 17,500  Level New York Center
Fri 08:12:30 PM 39.7653 -76.2047 48° Northeast 272 313 17,500  Level New York Center
Fri 08:13:28 PM 39.8147 -76.1275 50° Northeast 272 313 17,500  Level New York Center
Fri 08:14:29 PM 39.8661 -76.0503 49° Northeast 272 313 17,500  Level New York Center
Fri 08:15:30 PM 39.9131 -75.9808 49° Northeast 272 313 17,500  Level New York Center
Fri 08:16:28 PM 39.9622 -75.9058 49° Northeast 272 313 17,500  Level New York Center
Fri 08:17:28 PM 40.0131 -75.8336 47° Northeast 272 313 17,500  Level New York Center
Fri 08:18:28 PM 40.0644 -75.7561 49° Northeast 272 313 17,500  Level New York Center
Fri 08:19:29 PM 40.1156 -75.6811 48° Northeast 267 307 17,500  Level New York Center
Fri 08:20:30 PM 40.1667 -75.6058 48° Northeast 267 307 17,500  Level New York Center
Fri 08:21:30 PM 40.2156 -75.5278 51° Northeast 272 313 17,500  Level New York Center
Fri 08:22:28 PM 40.2644 -75.4522 50° Northeast 272 313 17,500  Level New York Center
Fri 08:23:28 PM 40.3178 -75.3686 50° Northeast 272 313 17,500  Level New York Center
Fri 08:24:28 PM 40.3664 -75.2956 49° Northeast 267 307 17,500  Level New York Center
Fri 08:25:28 PM 40.4172 -75.2200 49° Northeast 267 307 17,500  Level New York Center
Fri 08:26:29 PM 40.4614 -75.1519 50° Northeast 273 314 17,500  Level New York Center
Fri 08:27:29 PM 40.5144 -75.0706 49° Northeast 268 308 17,500  Level New York Center
Fri 08:28:28 PM 40.5633 -74.9917 51° Northeast 268 308 17,500  Level New York Center
Fri 08:29:28 PM 40.6117 -74.9153 50° Northeast 268 308 17,500  Level New York Center
Fri 08:30:29 PM 40.6622 -74.8419 48° Northeast 273 314 17,500  Level New York Center
Fri 08:31:29 PM 40.7064 -74.7706 51° Northeast 267 307 17,500  Level New York Center
Fri 08:32:29 PM 40.7592 -74.6861 50° Northeast 267 307 17,500  Level New York Center
Fri 08:33:30 PM 40.8031 -74.6172 50° Northeast 267 307 17,500  Level New York Center
Fri 08:34:40 PM 40.8667 -74.5167 50° Northeast 278 320 17,500  Level New York TRACON
Fri 08:35:28 PM 40.8997 -74.4636 50° Northeast 272 313 17,500  Level New York Center
Fri 08:36:28 PM 40.9522 -74.3811 50° Northeast 272 313 17,500  Level New York Center
Fri 08:37:40 PM 41.0167 -74.2833 49° Northeast 270 311 17,500  Level New York TRACON
Fri 08:38:34 PM 41.0500 -74.2167 56° Northeast 267 307 17,500  Level New York TRACON
Fri 08:39:34 PM 41.1000 -74.1500 45° Northeast 263 303 17,500  Level New York TRACON
Fri 08:40:34 PM 41.1500 -74.0667 51° Northeast 265 305 17,500  Level New York TRACON
Fri 08:41:34 PM 41.2000 -74.0000 45° Northeast 266 306 17,500  Level New York TRACON
Fri 08:42:34 PM 41.2333 -73.9167 62° Northeast 263 303 17,500 -50 Level New York TRACON
Fri 08:43:34 PM 41.2833 -73.8500 45° Northeast 267 307 17,400  Descending New York TRACON
Fri 08:44:34 PM 41.3333 -73.7667 51° Northeast 265 305 17,500 50 Climbing New York TRACON
Fri 08:45:34 PM 41.3833 -73.7000 45° Northeast 260 299 17,500  Level New York TRACON
Fri 08:46:34 PM 41.4333 -73.6167 51° Northeast 266 306 17,500  Level New York TRACON
Fri 08:47:40 PM 41.4833 -73.5333 51° Northeast 265 305 17,500  Level New York TRACON
Fri 08:48:34 PM 41.5167 -73.4667 56° Northeast 267 307 17,500  Level New York TRACON
Fri 08:49:40 PM 41.5833 -73.3833 43° Northeast 266 306 17,500  Level New York TRACON
Fri 08:50:34 PM 41.6167 -73.3167 56° Northeast 265 305 17,500  Level New York TRACON
Fri 08:50:52 PM 41.6175 -73.3203 287° West 257 296 17,500  Level Boston Center
Fri 08:51:52 PM 41.6725 -73.2294 51° Northeast 257 296 17,500  Level Boston Center
Fri 08:52:52 PM 41.7231 -73.1439 52° Northeast 257 296 17,500  Level Boston Center
Fri 08:53:52 PM 41.7650 -73.0747 51° Northeast 257 296 17,500  Level Boston Center
Fri 08:54:52 PM 41.8156 -72.9917 51° Northeast 257 296 17,500  Level Boston Center
Fri 08:55:52 PM 41.8575 -72.9222 51° Northeast 251 289 17,500  Level Boston Center
Fri 08:56:52 PM 41.9036 -72.8472 50° Northeast 257 296 17,500  Level Boston Center
Fri 08:57:52 PM 41.9478 -72.7694 53° Northeast 257 296 17,500  Level Boston Center
Fri 08:58:52 PM 41.9936 -72.6942 51° Northeast 257 296 17,500  Level Boston Center
Fri 08:59:52 PM 42.0397 -72.6161 51° Northeast 257 296 17,500  Level Boston Center
Fri 09:00:52 PM 42.0897 -72.5297 52° Northeast 257 296 17,500  Level Boston Center
Fri 09:01:52 PM 42.1317 -72.4597 51° Northeast 257 296 17,500  Level Boston Center
Fri 09:02:52 PM 42.1817 -72.3756 51° Northeast 257 296 17,500  Level Boston Center
Fri 09:03:52 PM 42.2211 -72.3056 53° Northeast 257 296 17,500  Level Boston Center
Fri 09:04:52 PM 42.2731 -72.2211 50° Northeast 257 296 17,500  Level Boston Center
Fri 09:05:52 PM 42.3147 -72.1508 51° Northeast 257 296 17,500  Level Boston Center
Fri 09:06:52 PM 42.3622 -72.0636 54° Northeast 257 296 17,500  Level Boston Center
Fri 09:07:52 PM 42.4036 -71.9958 50° Northeast 257 296 17,500  Level Boston Center
Fri 09:08:52 PM 42.4533 -71.9111 51° Northeast 257 296 17,500  Level Boston Center
Fri 09:09:52 PM 42.4925 -71.8431 52° Northeast 257 296 17,500  Level Boston Center
Fri 09:10:52 PM 42.5442 -71.7581 50° Northeast 252 290 17,500 -100 Level Boston Center
Fri 09:11:52 PM 42.5856 -71.6872 52° Northeast 257 296 17,300 -1,000 Descending Boston Center
Fri 09:12:52 PM 42.6369 -71.5933 53° Northeast 263 303 15,500 -1,700 Descending Boston Center
Fri 09:13:52 PM 42.6822 -71.5167 51° Northeast 278 320 13,900 -1,700 Descending Boston Center
Fri 09:14:52 PM 42.7378 -71.4225 51° Northeast 283 326 12,100 -1,400 Descending Boston Center
Fri 09:15:52 PM 42.7828 -71.3481 51° Northeast 283 326 11,100 -500 Descending Boston Center
Fri 09:16:52 PM 42.8300 -71.2625 53° Northeast 271 312 11,100 -300 Level Boston Center
Fri 09:17:52 PM 42.8708 -71.1936 51° Northeast 260 299 10,500 -1,159 Descending Boston Center
Fri 09:18:20 PM 42.9000 -71.1333 57° Northeast 266 306 9,400 -1,909 Descending KA90
Fri 09:19:20 PM 42.9500 -71.0667 44° Northeast 265 305 7,700 -1,905 Descending KA90
Fri 09:20:26 PM 42.9833 -70.9833 61° Northeast 247 284 5,400 -2,000 Descending KA90
Fri 09:21:20 PM 43.0333 -70.9500 26° Northeast 206 237 3,700 -1,450 Descending KA90
Fri 09:22:26 PM 43.1000 -70.9167 20° North 196 226 2,500 -1,091 Descending KA90
Fri 09:23:32 PM 43.1167 -70.8833 56° Northeast 139 160 1,300 -905 Descending KA90
Fri 09:24:32 PM 43.1000 -70.8500 124° Southeast 117 135 600 2,910 Descending KA90
Fri 09:26:52 PM 43.0578 -70.8033 141° Southeast 97 112 11,000 3,120 Climbing Boston Center
Fri 09:27:52 PM 43.0364 -70.7811 143° Southeast 97 112 11,000  Level Boston Center
Fri 09:29:00 PM 43.0667 -70.8167 312° West  Level FlightAware Approximate
Fri 09:36:00 PM 43.0779 -70.8233 312° West  Level Estimated

Login

Don't have an account? Register now (free) for customized features, flight alerts, and more!